IBE69N EGKK-LEIB
Flight info
| Callsign | IBE69N |
|---|---|
| Flight time | N/A |
| Altitude | 35000 |
| Route | SFD Y47 DRAKE L151 SITET UN859 SOPIL DCT BALAN DCT EVPOK DCT NARAK DCT GAI DCT LOMRA DCT ROCAN/N0481F310 DCT PUMAL DCT XEPLA DCT BCN DCT CORDA |
| Aircraft | A343/H-SDE2E3FGHIJ4J5M1RWXY/LB1D1 |
Departure
| Time | 2026-05-07 13:49 |
|---|---|
| Airport | London Gatwick Airport (EGKK) |
Arrival
| Time | N/A |
|---|---|
| Airport | Ibiza Airport (LEIB) |
| Time | Latitude | Longitude | Altitude | Speed | Heading |
|---|---|---|---|---|---|
| 2026-05-07 13:49 | 50.88563 | -0.10271 | 18589 ft | 327 kts | 133° |
| 2026-05-07 13:49 | 50.87041 | -0.07528 | 19139 ft | 331 kts | 133° |
| 2026-05-07 13:50 | 50.85513 | -0.04776 | 19716 ft | 334 kts | 134° |
| 2026-05-07 13:50 | 50.84495 | -0.02942 | 20088 ft | 336 kts | 134° |
| 2026-05-07 13:50 | 50.82429 | 0.00775 | 20823 ft | 341 kts | 133° |
| 2026-05-07 13:50 | 50.81388 | 0.02645 | 21204 ft | 343 kts | 133° |
| 2026-05-07 13:51 | 50.79234 | 0.06407 | 21931 ft | 346 kts | 138° |
| 2026-05-07 13:51 | 50.77336 | 0.08746 | 22484 ft | 346 kts | 153° |
| 2026-05-07 13:51 | 50.75128 | 0.10215 | 23023 ft | 345 kts | 168° |
| 2026-05-07 13:51 | 50.72731 | 0.10706 | 23316 ft | 352 kts | 184° |
| 2026-05-07 13:52 | 50.70265 | 0.10290 | 23543 ft | 361 kts | 192° |
| 2026-05-07 13:52 | 50.67801 | 0.09519 | 23778 ft | 371 kts | 195° |
| 2026-05-07 13:52 | 50.65247 | 0.08552 | 23983 ft | 381 kts | 196° |
| 2026-05-07 13:52 | 50.62646 | 0.07513 | 24178 ft | 391 kts | 196° |
| 2026-05-07 13:53 | 50.59957 | 0.06448 | 24382 ft | 401 kts | 196° |
| 2026-05-07 13:53 | 50.57238 | 0.05402 | 24576 ft | 411 kts | 195° |
| 2026-05-07 13:53 | 50.54415 | 0.04348 | 24770 ft | 421 kts | 195° |
| 2026-05-07 13:53 | 50.51521 | 0.03292 | 24989 ft | 429 kts | 195° |
| 2026-05-07 13:54 | 50.48582 | 0.02235 | 25326 ft | 433 kts | 194° |
| 2026-05-07 13:54 | 50.45666 | 0.01193 | 25693 ft | 437 kts | 194° |
| 2026-05-07 13:54 | 50.42687 | 0.00127 | 26086 ft | 440 kts | 195° |
| 2026-05-07 13:54 | 50.39682 | -0.00946 | 26467 ft | 442 kts | 194° |
| 2026-05-07 13:55 | 50.36670 | -0.02019 | 26869 ft | 445 kts | 194° |
| 2026-05-07 13:55 | 50.33637 | -0.03098 | 27266 ft | 447 kts | 194° |
| 2026-05-07 13:55 | 50.30635 | -0.04166 | 27632 ft | 449 kts | 194° |
| 2026-05-07 13:55 | 50.27566 | -0.05240 | 27992 ft | 452 kts | 193° |
| 2026-05-07 13:56 | 50.24439 | -0.05921 | 28356 ft | 456 kts | 186° |
| 2026-05-07 13:56 | 50.21241 | -0.05920 | 28691 ft | 461 kts | 177° |
| 2026-05-07 13:56 | 50.18049 | -0.05123 | 29034 ft | 466 kts | 168° |
| 2026-05-07 13:56 | 50.14959 | -0.03525 | 29434 ft | 470 kts | 160° |
| 2026-05-07 13:57 | 50.11960 | -0.01595 | 29757 ft | 472 kts | 160° |
| 2026-05-07 13:57 | 50.08857 | 0.00125 | 30017 ft | 474 kts | 165° |
| 2026-05-07 13:57 | 50.05672 | 0.01589 | 30292 ft | 475 kts | 166° |
| 2026-05-07 13:57 | 50.02482 | 0.02958 | 30684 ft | 474 kts | 167° |
| 2026-05-07 13:58 | 49.99300 | 0.04257 | 31097 ft | 472 kts | 168° |
| 2026-05-07 13:58 | 49.96162 | 0.05500 | 31465 ft | 470 kts | 168° |
| 2026-05-07 13:58 | 49.92988 | 0.06739 | 31906 ft | 468 kts | 168° |
| 2026-05-07 13:58 | 49.89827 | 0.07966 | 32304 ft | 467 kts | 168° |
| 2026-05-07 13:59 | 49.86671 | 0.09193 | 32663 ft | 466 kts | 168° |
| 2026-05-07 13:59 | 49.83523 | 0.10424 | 33016 ft | 465 kts | 168° |
| 2026-05-07 13:59 | 49.80421 | 0.11636 | 33368 ft | 464 kts | 168° |
| 2026-05-07 13:59 | 49.77282 | 0.12858 | 33710 ft | 463 kts | 168° |
| 2026-05-07 14:00 | 49.74155 | 0.14073 | 34048 ft | 462 kts | 168° |
| 2026-05-07 14:00 | 49.71031 | 0.15286 | 34332 ft | 461 kts | 168° |
| 2026-05-07 14:00 | 49.67924 | 0.16492 | 34593 ft | 461 kts | 168° |
| 2026-05-07 14:00 | 49.64847 | 0.17702 | 34838 ft | 461 kts | 168° |
| 2026-05-07 14:01 | 49.61729 | 0.18956 | 35015 ft | 463 kts | 167° |
| 2026-05-07 14:01 | 49.55473 | 0.21494 | 35047 ft | 462 kts | 167° |
| 2026-05-07 14:02 | 49.49285 | 0.23996 | 35043 ft | 461 kts | 167° |
| 2026-05-07 14:02 | 49.43058 | 0.26492 | 35046 ft | 462 kts | 167° |
| 2026-05-07 14:03 | 49.36826 | 0.28980 | 35048 ft | 462 kts | 167° |
| 2026-05-07 14:03 | 49.30636 | 0.31445 | 35046 ft | 462 kts | 167° |
| 2026-05-07 14:04 | 49.24421 | 0.34022 | 35046 ft | 462 kts | 167° |
| 2026-05-07 14:04 | 49.18215 | 0.36667 | 35024 ft | 462 kts | 167° |
| 2026-05-07 14:05 | 49.12012 | 0.39294 | 35027 ft | 462 kts | 167° |
| 2026-05-07 14:05 | 49.05792 | 0.41905 | 35023 ft | 462 kts | 167° |
| 2026-05-07 14:06 | 48.99623 | 0.44482 | 35022 ft | 462 kts | 167° |
| 2026-05-07 14:06 | 48.93435 | 0.47060 | 35025 ft | 462 kts | 167° |
| 2026-05-07 14:07 | 48.87200 | 0.49652 | 35026 ft | 462 kts | 167° |
| 2026-05-07 14:07 | 48.81018 | 0.52215 | 35028 ft | 462 kts | 167° |
| 2026-05-07 14:08 | 48.74786 | 0.54758 | 35066 ft | 463 kts | 168° |
| 2026-05-07 14:08 | 48.71661 | 0.55981 | 35269 ft | 463 kts | 168° |
| 2026-05-07 14:08 | 48.68570 | 0.57177 | 35522 ft | 463 kts | 168° |
| 2026-05-07 14:08 | 48.65445 | 0.58386 | 35740 ft | 463 kts | 168° |
| 2026-05-07 14:09 | 48.62325 | 0.59594 | 35975 ft | 463 kts | 168° |
| 2026-05-07 14:09 | 48.59190 | 0.60812 | 36211 ft | 464 kts | 168° |
| 2026-05-07 14:09 | 48.56053 | 0.62032 | 36420 ft | 464 kts | 168° |
| 2026-05-07 14:09 | 48.52923 | 0.63250 | 36650 ft | 464 kts | 168° |
| 2026-05-07 14:10 | 48.49839 | 0.64461 | 36871 ft | 465 kts | 167° |
| 2026-05-07 14:10 | 48.46711 | 0.65725 | 37085 ft | 465 kts | 167° |
| 2026-05-07 14:10 | 48.43589 | 0.67002 | 37318 ft | 465 kts | 167° |
| 2026-05-07 14:10 | 48.40463 | 0.68285 | 37516 ft | 466 kts | 167° |
| 2026-05-07 14:11 | 48.37330 | 0.69567 | 37740 ft | 466 kts | 167° |
| 2026-05-07 14:11 | 48.34198 | 0.70844 | 37955 ft | 466 kts | 167° |
| 2026-05-07 14:11 | 48.31060 | 0.72118 | 38172 ft | 466 kts | 167° |
| 2026-05-07 14:11 | 48.27927 | 0.73386 | 38370 ft | 466 kts | 167° |
| 2026-05-07 14:12 | 48.24792 | 0.74651 | 38575 ft | 466 kts | 167° |
| 2026-05-07 14:12 | 48.21698 | 0.75893 | 38736 ft | 466 kts | 168° |
| 2026-05-07 14:12 | 48.18555 | 0.77132 | 38912 ft | 466 kts | 168° |
| 2026-05-07 14:13 | 48.13310 | 0.79180 | 39030 ft | 470 kts | 168° |
| 2026-05-07 14:13 | 48.05901 | 0.82072 | 39029 ft | 468 kts | 168° |
| 2026-05-07 14:14 | 47.99632 | 0.84523 | 39023 ft | 468 kts | 168° |
| 2026-05-07 14:14 | 47.93303 | 0.86991 | 39028 ft | 473 kts | 168° |
| 2026-05-07 14:15 | 47.86870 | 0.89492 | 39025 ft | 481 kts | 168° |
| 2026-05-07 14:15 | 47.80373 | 0.92015 | 39027 ft | 482 kts | 168° |
| 2026-05-07 14:16 | 47.73887 | 0.94530 | 39022 ft | 480 kts | 168° |
| 2026-05-07 14:16 | 47.67417 | 0.97029 | 39021 ft | 480 kts | 168° |
| 2026-05-07 14:17 | 47.60981 | 0.99508 | 39020 ft | 480 kts | 168° |
| 2026-05-07 14:17 | 47.54499 | 1.01998 | 39020 ft | 480 kts | 168° |
| 2026-05-07 14:18 | 47.48071 | 1.04461 | 39020 ft | 479 kts | 168° |
| 2026-05-07 14:18 | 47.41539 | 1.06225 | 39018 ft | 474 kts | 180° |
| 2026-05-07 14:19 | 47.34933 | 1.06351 | 39015 ft | 473 kts | 183° |
| 2026-05-07 14:19 | 47.28389 | 1.06175 | 39012 ft | 473 kts | 184° |
| 2026-05-07 14:20 | 47.21810 | 1.05969 | 39012 ft | 473 kts | 184° |
| 2026-05-07 14:20 | 47.15229 | 1.05793 | 39004 ft | 472 kts | 184° |
| 2026-05-07 14:21 | 47.08650 | 1.05638 | 39007 ft | 472 kts | 183° |
| 2026-05-07 14:21 | 47.02117 | 1.05487 | 39004 ft | 472 kts | 184° |
| 2026-05-07 14:22 | 46.95561 | 1.05257 | 38999 ft | 471 kts | 184° |
| 2026-05-07 14:22 | 46.89004 | 1.04945 | 39004 ft | 471 kts | 184° |
| 2026-05-07 14:23 | 46.82453 | 1.04643 | 39003 ft | 470 kts | 184° |
| 2026-05-07 14:23 | 46.75906 | 1.04358 | 38999 ft | 470 kts | 184° |
| 2026-05-07 14:24 | 46.69357 | 1.04081 | 38997 ft | 470 kts | 184° |
| 2026-05-07 14:24 | 46.62809 | 1.03805 | 38996 ft | 471 kts | 184° |
| 2026-05-07 14:25 | 46.56299 | 1.03531 | 38984 ft | 471 kts | 184° |
| 2026-05-07 14:25 | 46.49751 | 1.04074 | 38995 ft | 474 kts | 172° |
| 2026-05-07 14:26 | 46.43262 | 1.06025 | 38992 ft | 476 kts | 170° |
| 2026-05-07 14:26 | 46.37899 | 1.07842 | 38993 ft | 476 kts | 169° |
| 2026-05-07 14:27 | 46.30405 | 1.10402 | 38990 ft | 476 kts | 170° |
| 2026-05-07 14:27 | 46.24999 | 1.12217 | 38992 ft | 476 kts | 170° |
| 2026-05-07 14:28 | 46.18577 | 1.14351 | 38988 ft | 476 kts | 170° |
| 2026-05-07 14:28 | 46.12120 | 1.16486 | 38990 ft | 475 kts | 170° |
| 2026-05-07 14:29 | 46.05673 | 1.18614 | 38998 ft | 475 kts | 170° |
| 2026-05-07 14:29 | 45.99230 | 1.20736 | 38990 ft | 475 kts | 170° |
| 2026-05-07 14:30 | 45.92788 | 1.22853 | 38985 ft | 475 kts | 170° |
| 2026-05-07 14:30 | 45.86339 | 1.24968 | 38995 ft | 474 kts | 170° |
| 2026-05-07 14:31 | 45.79906 | 1.27072 | 38999 ft | 474 kts | 170° |
| 2026-05-07 14:31 | 45.73469 | 1.29171 | 38990 ft | 474 kts | 170° |
| 2026-05-07 14:32 | 45.67079 | 1.31252 | 38990 ft | 474 kts | 170° |
| 2026-05-07 14:32 | 45.60645 | 1.33342 | 38990 ft | 474 kts | 170° |
| 2026-05-07 14:33 | 45.54203 | 1.35429 | 38989 ft | 473 kts | 171° |
| 2026-05-07 14:33 | 45.47826 | 1.37491 | 38990 ft | 472 kts | 171° |
| 2026-05-07 14:34 | 45.41448 | 1.39550 | 38988 ft | 464 kts | 171° |
| 2026-05-07 14:34 | 45.35189 | 1.41566 | 38985 ft | 459 kts | 171° |
| 2026-05-07 14:35 | 45.28956 | 1.43565 | 38991 ft | 458 kts | 171° |
| 2026-05-07 14:35 | 45.22733 | 1.45555 | 38991 ft | 458 kts | 171° |
| 2026-05-07 14:36 | 45.16512 | 1.47543 | 38987 ft | 458 kts | 171° |
| 2026-05-07 14:36 | 45.10297 | 1.49526 | 38989 ft | 457 kts | 171° |
| 2026-05-07 14:37 | 45.04123 | 1.51490 | 39000 ft | 457 kts | 171° |
| 2026-05-07 14:37 | 44.95398 | 1.54259 | 38977 ft | 457 kts | 171° |
| 2026-05-07 14:38 | 44.89970 | 1.55977 | 38979 ft | 457 kts | 171° |
| 2026-05-07 14:38 | 44.83763 | 1.57938 | 38978 ft | 456 kts | 171° |
| 2026-05-07 14:39 | 44.77610 | 1.59876 | 38978 ft | 456 kts | 171° |
| 2026-05-07 14:39 | 44.71395 | 1.61830 | 38978 ft | 456 kts | 171° |
| 2026-05-07 14:40 | 44.65190 | 1.63778 | 38981 ft | 456 kts | 171° |
| 2026-05-07 14:40 | 44.58989 | 1.65719 | 38973 ft | 456 kts | 171° |
| 2026-05-07 14:41 | 44.52829 | 1.67644 | 38975 ft | 456 kts | 171° |
| 2026-05-07 14:41 | 44.46629 | 1.69577 | 38980 ft | 456 kts | 171° |
| 2026-05-07 14:42 | 44.40426 | 1.71507 | 38964 ft | 456 kts | 171° |
| 2026-05-07 14:42 | 44.34228 | 1.73431 | 38977 ft | 455 kts | 171° |
| 2026-05-07 14:43 | 44.28042 | 1.75339 | 38980 ft | 455 kts | 172° |
| 2026-05-07 14:43 | 44.21843 | 1.76804 | 38978 ft | 453 kts | 175° |
| 2026-05-07 14:44 | 44.15601 | 1.78055 | 38980 ft | 453 kts | 175° |
| 2026-05-07 14:44 | 44.09351 | 1.79357 | 38980 ft | 453 kts | 174° |
| 2026-05-07 14:45 | 44.03117 | 1.80712 | 38979 ft | 454 kts | 174° |
| 2026-05-07 14:45 | 43.99532 | 1.81499 | 38977 ft | 458 kts | 174° |
| 2026-05-07 14:46 | 43.93213 | 1.82847 | 38980 ft | 465 kts | 176° |
| 2026-05-07 14:46 | 43.86767 | 1.83536 | 38977 ft | 463 kts | 180° |
| 2026-05-07 14:47 | 43.80339 | 1.83982 | 38973 ft | 462 kts | 180° |
| 2026-05-07 14:47 | 43.73925 | 1.84510 | 38977 ft | 461 kts | 179° |
| 2026-05-07 14:48 | 43.67515 | 1.85112 | 38976 ft | 461 kts | 179° |
| 2026-05-07 14:48 | 43.61110 | 1.85735 | 38963 ft | 461 kts | 179° |
| 2026-05-07 14:49 | 43.54704 | 1.86358 | 38970 ft | 461 kts | 179° |
| 2026-05-07 14:49 | 43.48356 | 1.86970 | 38962 ft | 460 kts | 179° |
| 2026-05-07 14:50 | 43.41955 | 1.87583 | 38967 ft | 460 kts | 179° |
| 2026-05-07 14:50 | 43.35563 | 1.88194 | 38966 ft | 459 kts | 179° |
| 2026-05-07 14:51 | 43.29186 | 1.88808 | 38956 ft | 459 kts | 179° |
| 2026-05-07 14:51 | 43.22812 | 1.89416 | 38962 ft | 459 kts | 179° |
| 2026-05-07 14:52 | 43.16446 | 1.90021 | 38955 ft | 458 kts | 179° |
| 2026-05-07 14:52 | 43.10083 | 1.90627 | 38956 ft | 458 kts | 179° |
| 2026-05-07 14:53 | 43.03765 | 1.91227 | 38966 ft | 458 kts | 180° |
| 2026-05-07 14:53 | 42.97414 | 1.91829 | 38968 ft | 456 kts | 180° |
| 2026-05-07 14:54 | 42.91089 | 1.92429 | 38969 ft | 454 kts | 180° |
| 2026-05-07 14:54 | 42.84783 | 1.93026 | 38967 ft | 453 kts | 180° |
| 2026-05-07 14:55 | 42.78483 | 1.93621 | 38974 ft | 454 kts | 180° |
| 2026-05-07 14:55 | 42.72221 | 1.94208 | 38975 ft | 454 kts | 180° |
| 2026-05-07 14:56 | 42.65912 | 1.94812 | 38978 ft | 454 kts | 179° |
| 2026-05-07 14:56 | 42.59624 | 1.95967 | 38977 ft | 457 kts | 175° |
| 2026-05-07 14:57 | 42.53363 | 1.97391 | 38978 ft | 455 kts | 175° |
| 2026-05-07 14:57 | 42.47149 | 1.98734 | 38975 ft | 454 kts | 176° |
| 2026-05-07 14:58 | 42.40910 | 2.00008 | 38974 ft | 453 kts | 176° |
| 2026-05-07 14:58 | 42.34658 | 2.01229 | 38965 ft | 453 kts | 178° |
| 2026-05-07 14:59 | 42.28397 | 2.01877 | 38971 ft | 451 kts | 181° |
| 2026-05-07 14:59 | 42.22118 | 2.02316 | 38967 ft | 451 kts | 181° |
| 2026-05-07 15:00 | 42.15860 | 2.02826 | 38960 ft | 451 kts | 180° |
| 2026-05-07 15:00 | 42.09622 | 2.03399 | 38963 ft | 452 kts | 180° |
| 2026-05-07 15:01 | 42.03337 | 2.03999 | 38963 ft | 453 kts | 180° |
| 2026-05-07 15:01 | 41.97046 | 2.04597 | 38962 ft | 453 kts | 180° |
| 2026-05-07 15:02 | 41.90748 | 2.05189 | 38960 ft | 454 kts | 180° |
| 2026-05-07 15:02 | 41.84438 | 2.05781 | 38960 ft | 454 kts | 180° |
| 2026-05-07 15:03 | 41.78132 | 2.06371 | 38965 ft | 454 kts | 180° |
| 2026-05-07 15:03 | 41.71820 | 2.06960 | 38964 ft | 454 kts | 180° |
| 2026-05-07 15:04 | 41.65533 | 2.07552 | 38967 ft | 452 kts | 180° |
| 2026-05-07 15:04 | 41.59303 | 2.08133 | 38967 ft | 452 kts | 180° |
| 2026-05-07 15:05 | 41.53026 | 2.08714 | 38963 ft | 452 kts | 180° |
| 2026-05-07 15:05 | 41.46752 | 2.09295 | 38968 ft | 451 kts | 180° |
| 2026-05-07 15:06 | 41.40496 | 2.09874 | 38967 ft | 450 kts | 180° |